Briefing drone pour Veauche

Rechercher une autre localisation

Conditions de vol :


Nous sommes le : Vendredi 16 avril 2021
Il est 20:07 UTC (22:07 LT)

Lever de soleil : 04:28 UTC (06:28 LT)
Coucher de soleil : 18:56 UTC (20:56 LT)

Météo

L'essentiel des conditions de vol

VIGILANCE MÉTÉO FRANCE - Loire (42)
Pas de vigilances particulieres
METAR de LFMH
LFMH 162000Z AUTO 35009KT CAVOK 07/M03 Q1020

Date d'émission: 16/04/2021
Heure d'émission: 20:00 UTC
Vent: 350° pour 9 KT (17 km/h)
Visibilité horizontale: > 10 km
Plafond : Plafond et visibilité OK (CAVOK)
Température: 7 °C
Point de rosée: -3 °C
Humidité: 49%
Pression (QNH): 1020 hPa
TAF de LFMH
LFMH 161900Z 1619/1712 CNL

Conditions prévues :

Heure d'émission : Bulletin éffectué le 16 à 19:00 UTC
Prévision : Valide du 16 a 19:00 UTC au 17 a 12:00 UTC
Nuages : à 0ft (0 m)
WEBCAM POUR VEAUCHE

Réglementation

Voler en sécurité

CARTES AERONAUTIQUE 1/500.000
CARTES VAC (LFMH)
SUP AIP




Chargement des AIP...
NOTAM (VEAUCHE + Terrain à proximité / FIR )




Chargement des NOTAMS...
CONTACT PREFECTURE 42


Avertissement : Les données mises à disposition sont indicatives. Oxygène Drone ne pourra être tenu responsable de dégâts causés aux biens et aux personnes.